Time;durP1;ratioP1;P1;durP2;ratioP2;P2;SDS_P1;SDS_P2;PMS_P1;PMS_P2;Temp;Humidity;BMP_temperature;BMP_pressure;BME280_temperature;BME280_humidity;BME280_pressure;Samples;Min_cycle;Max_cycle;Signal;HPM_P1;HPM_P2
2022/03/30 00:01:24;;;;;;;;;;;12.90;99.90;;;;;;6217677;23;19945;-69
2022/03/30 00:03:50;;;;;;;;;;;12.90;99.90;;;;;;6246381;23;19904;-69
2022/03/30 00:06:16;;;;;;;;;;;12.90;99.90;;;;;;6245864;23;19910;-69
2022/03/30 00:08:42;;;;;;;;;;;12.90;99.90;;;;;;6246546;23;19926;-68
2022/03/30 00:11:08;;;;;;;;;;;12.90;99.90;;;;;;6245795;23;20308;-69
2022/03/30 00:13:35;;;;;;;;;;;12.90;99.90;;;;;;6246451;23;19949;-70
2022/03/30 00:16:02;;;;;;;;;;;12.90;99.90;;;;;;6245773;23;20283;-68
2022/03/30 00:18:28;;;;;;;;;;;12.90;99.90;;;;;;6245533;23;19990;-69
2022/03/30 00:20:53;;;;;;;;;;;13.00;99.90;;;;;;6245642;23;19985;-70
2022/03/30 00:23:19;;;;;;;;;;;13.00;99.90;;;;;;6246135;23;19904;-70
2022/03/30 00:25:45;;;;;;;;;;;13.00;99.90;;;;;;6245933;23;19903;-69
2022/03/30 00:28:11;;;;;;;;;;;13.10;99.90;;;;;;6246264;23;19908;-68
2022/03/30 00:30:37;;;;;;;;;;;13.10;99.90;;;;;;6218666;23;19964;-69
2022/03/30 00:33:03;;;;;;;;;;;13.10;99.90;;;;;;6245946;23;19904;-70
2022/03/30 00:35:29;;;;;;;;;;;13.10;99.90;;;;;;6246028;23;19926;-68
2022/03/30 00:37:55;;;;;;;;;;;13.20;99.90;;;;;;6246036;23;20305;-69
2022/03/30 00:40:21;;;;;;;;;;;13.20;99.90;;;;;;6245858;23;20317;-67
2022/03/30 00:42:47;;;;;;;;;;;13.20;99.90;;;;;;6246025;23;19982;-69
2022/03/30 00:45:17;;;;;;;;;;;13.20;99.90;;;;;;6246379;23;19910;-70
2022/03/30 00:47:43;;;;;;;;;;;13.20;99.90;;;;;;6245975;23;20423;-69
2022/03/30 00:50:10;;;;;;;;;;;13.30;99.90;;;;;;6245528;23;20005;-69
2022/03/30 00:52:37;;;;;;;;;;;13.30;99.90;;;;;;6245805;23;19904;-70
2022/03/30 00:55:03;;;;;;;;;;;13.30;99.90;;;;;;6246021;23;20297;-70
2022/03/30 00:57:32;;;;;;;;;;;13.30;99.90;;;;;;6245565;23;19957;-70
2022/03/30 00:59:58;;;;;;;;;;;13.40;99.90;;;;;;6245879;23;19911;-68
2022/03/30 01:02:24;;;;;;;;;;;13.30;99.90;;;;;;6245677;23;20040;-70
2022/03/30 01:04:51;;;;;;;;;;;13.30;99.90;;;;;;6245485;23;19944;-68
2022/03/30 01:07:17;;;;;;;;;;;13.30;99.90;;;;;;6245917;23;19905;-69
2022/03/30 01:09:43;;;;;;;;;;;13.40;99.90;;;;;;6245662;23;19904;-69
2022/03/30 01:12:09;;;;;;;;;;;13.30;99.90;;;;;;6245146;23;19990;-68
2022/03/30 01:14:36;;;;;;;;;;;13.40;99.90;;;;;;6245943;23;20269;-67
2022/03/30 01:17:01;;;;;;;;;;;13.30;99.90;;;;;;6245424;23;19911;-67
2022/03/30 01:19:28;;;;;;;;;;;13.40;99.90;;;;;;6245732;23;19911;-69
2022/03/30 01:21:54;;;;;;;;;;;13.30;99.90;;;;;;6245291;23;20005;-68
2022/03/30 01:24:19;;;;;;;;;;;13.30;99.90;;;;;;6245947;23;19979;-69
2022/03/30 01:26:45;;;;;;;;;;;13.20;99.90;;;;;;6244784;23;19903;-66
2022/03/30 01:34:40;;;;;;;;;;;13.10;99.90;;;;;;6245576;23;20213;-68
2022/03/30 01:37:06;;;;;;;;;;;13.20;99.90;;;;;;6245263;23;19904;-67
2022/03/30 01:39:32;;;;;;;;;;;13.10;99.90;;;;;;6245177;23;19911;-69
2022/03/30 01:41:58;;;;;;;;;;;13.00;99.90;;;;;;6216993;23;20002;-69
2022/03/30 01:44:24;;;;;;;;;;;13.00;99.90;;;;;;6244645;23;19903;-69
2022/03/30 01:46:51;;;;;;;;;;;13.00;99.90;;;;;;6245144;23;19911;-69
2022/03/30 01:49:21;;;;;;;;;;;12.90;99.90;;;;;;6244961;23;19903;-70
2022/03/30 01:51:56;;;;;;;;;;;13.00;99.90;;;;;;6245083;23;19911;-69
2022/03/30 01:54:23;;;;;;;;;;;12.90;99.90;;;;;;6245167;23;20313;-69
2022/03/30 01:56:50;;;;;;;;;;;12.90;99.90;;;;;;6244913;23;19939;-70
2022/03/30 01:59:16;;;;;;;;;;;12.90;99.90;;;;;;6244806;23;19919;-70
2022/03/30 02:01:42;;;;;;;;;;;12.80;99.90;;;;;;6245277;23;19986;-69
2022/03/30 02:04:08;;;;;;;;;;;12.90;99.90;;;;;;6244802;23;19967;-70
2022/03/30 02:06:35;;;;;;;;;;;12.90;99.90;;;;;;6244929;23;19975;-70
2022/03/30 02:09:00;;;;;;;;;;;12.90;99.90;;;;;;6245377;23;20210;-69
2022/03/30 02:11:27;;;;;;;;;;;12.90;99.90;;;;;;6244938;23;20006;-70
2022/03/30 02:13:54;;;;;;;;;;;12.90;99.90;;;;;;6245291;23;19904;-70
2022/03/30 02:16:19;;;;;;;;;;;13.00;99.90;;;;;;6244783;23;19904;-71
2022/03/30 02:18:46;;;;;;;;;;;13.00;99.90;;;;;;6244524;23;19964;-71
2022/03/30 02:21:11;;;;;;;;;;;13.10;99.90;;;;;;6244683;23;20279;-70
2022/03/30 02:23:37;;;;;;;;;;;13.10;99.90;;;;;;6244976;23;19908;-70
2022/03/30 02:26:03;;;;;;;;;;;13.10;99.90;;;;;;6244586;23;19910;-69
2022/03/30 02:28:29;;;;;;;;;;;13.10;99.90;;;;;;6244869;23;19908;-70
2022/03/30 02:30:55;;;;;;;;;;;13.20;99.90;;;;;;6244659;23;19976;-70
2022/03/30 02:33:21;;;;;;;;;;;13.10;99.90;;;;;;6244643;23;19939;-69
2022/03/30 02:35:47;;;;;;;;;;;13.10;99.90;;;;;;6244513;23;20284;-71
2022/03/30 02:38:13;;;;;;;;;;;13.10;99.90;;;;;;6244203;23;19943;-70
2022/03/30 02:40:39;;;;;;;;;;;13.10;99.90;;;;;;6244291;23;19908;-71
2022/03/30 02:43:04;;;;;;;;;;;13.10;99.90;;;;;;6244947;23;19918;-69
2022/03/30 02:45:30;;;;;;;;;;;13.10;99.90;;;;;;6244903;23;19911;-68
2022/03/30 02:50:41;;;;;;;;;;;13.20;99.90;;;;;;6243795;23;20311;-66
2022/03/30 02:53:07;;;;;;;;;;;13.20;99.90;;;;;;6243650;23;20324;-68
2022/03/30 02:55:33;;;;;;;;;;;13.30;99.90;;;;;;6244970;23;19904;-67
2022/03/30 02:57:58;;;;;;;;;;;13.30;99.90;;;;;;6244538;23;19973;-67
2022/03/30 03:00:24;;;;;;;;;;;13.20;99.90;;;;;;6244893;23;19908;-67
2022/03/30 03:02:50;;;;;;;;;;;13.20;99.90;;;;;;6245053;23;20264;-67
2022/03/30 03:05:16;;;;;;;;;;;13.20;99.90;;;;;;6244976;23;19903;-68
2022/03/30 03:07:41;;;;;;;;;;;13.10;99.90;;;;;;6244454;23;20193;-66
2022/03/30 03:10:09;;;;;;;;;;;13.10;99.90;;;;;;6244629;23;19993;-67
2022/03/30 03:12:36;;;;;;;;;;;13.10;99.90;;;;;;6244555;23;19933;-67
2022/03/30 03:15:01;;;;;;;;;;;13.20;99.90;;;;;;6244675;23;19954;-67
2022/03/30 03:17:27;;;;;;;;;;;13.20;99.90;;;;;;6244452;23;19916;-69
2022/03/30 03:19:53;;;;;;;;;;;13.10;99.90;;;;;;6244613;23;19919;-68
2022/03/30 03:22:19;;;;;;;;;;;13.20;99.90;;;;;;6245156;23;20246;-68
2022/03/30 03:24:46;;;;;;;;;;;13.20;99.90;;;;;;6244686;23;20267;-67
2022/03/30 03:27:12;;;;;;;;;;;13.30;99.90;;;;;;6219232;23;19926;-67
2022/03/30 03:29:38;;;;;;;;;;;13.30;99.90;;;;;;6245305;23;19903;-67
2022/03/30 03:32:04;;;;;;;;;;;13.40;99.90;;;;;;6245331;23;19904;-67
2022/03/30 03:34:30;;;;;;;;;;;13.30;99.90;;;;;;6245591;23;19904;-66
2022/03/30 03:36:55;;;;;;;;;;;13.40;99.90;;;;;;6247990;23;20260;-67
2022/03/30 03:39:21;;;;;;;;;;;13.40;99.90;;;;;;6246924;23;19916;-69
2022/03/30 03:41:53;;;;;;;;;;;13.50;99.90;;;;;;6247093;23;19992;-68
2022/03/30 03:44:19;;;;;;;;;;;13.50;99.90;;;;;;6219957;23;19904;-67
2022/03/30 03:46:44;;;;;;;;;;;13.50;99.90;;;;;;6247440;23;19981;-67
2022/03/30 03:49:10;;;;;;;;;;;13.50;99.90;;;;;;6246876;23;20272;-67
2022/03/30 03:51:36;;;;;;;;;;;13.50;99.90;;;;;;6247041;23;20313;-68
2022/03/30 03:54:02;;;;;;;;;;;13.50;99.90;;;;;;6247010;23;19907;-67
2022/03/30 03:56:28;;;;;;;;;;;13.40;99.90;;;;;;6247106;23;19904;-69
2022/03/30 03:58:54;;;;;;;;;;;13.30;99.90;;;;;;6247037;23;19954;-65
2022/03/30 04:01:20;;;;;;;;;;;13.40;99.90;;;;;;6247740;23;19976;-69
2022/03/30 04:03:46;;;;;;;;;;;13.50;99.90;;;;;;6246969;23;19910;-67
2022/03/30 04:06:12;;;;;;;;;;;13.50;99.90;;;;;;6246936;23;19938;-70
2022/03/30 04:08:37;;;;;;;;;;;13.60;99.90;;;;;;6247333;23;19904;-69
2022/03/30 04:11:03;;;;;;;;;;;13.70;99.90;;;;;;6247136;23;19982;-67
2022/03/30 04:13:29;;;;;;;;;;;13.70;99.90;;;;;;6246891;23;20155;-68
2022/03/30 04:15:55;;;;;;;;;;;13.70;99.90;;;;;;6246871;23;20017;-69
2022/03/30 04:18:21;;;;;;;;;;;13.80;99.90;;;;;;6247433;23;19916;-70
2022/03/30 04:20:47;;;;;;;;;;;13.80;99.90;;;;;;6220645;23;19903;-68
2022/03/30 04:23:12;;;;;;;;;;;13.70;99.90;;;;;;6248268;23;19904;-69
2022/03/30 04:25:38;;;;;;;;;;;13.60;99.90;;;;;;6247497;23;19903;-70
2022/03/30 04:28:05;;;;;;;;;;;13.60;99.90;;;;;;6220619;23;19943;-67
2022/03/30 04:30:30;;;;;;;;;;;13.60;99.90;;;;;;6247505;23;19919;-68
2022/03/30 04:32:56;;;;;;;;;;;13.60;99.90;;;;;;6220530;23;19911;-69
2022/03/30 04:35:25;;;;;;;;;;;13.60;99.90;;;;;;6248084;23;20331;-68
2022/03/30 04:37:54;;;;;;;;;;;13.60;99.90;;;;;;6247670;23;19957;-68
2022/03/30 04:40:21;;;;;;;;;;;13.60;99.90;;;;;;6247617;23;19964;-69
2022/03/30 04:42:48;;;;;;;;;;;13.60;99.90;;;;;;6247388;23;19904;-69
2022/03/30 04:45:14;;;;;;;;;;;13.70;99.90;;;;;;6247385;23;19904;-68
2022/03/30 04:47:40;;;;;;;;;;;13.80;99.90;;;;;;6246944;23;19983;-69
2022/03/30 04:50:06;;;;;;;;;;;13.90;99.90;;;;;;6247819;23;19903;-67
2022/03/30 04:52:32;;;;;;;;;;;13.90;99.90;;;;;;6247129;23;19982;-67
2022/03/30 04:54:58;;;;;;;;;;;13.80;99.90;;;;;;6220197;23;19910;-69
2022/03/30 04:57:24;;;;;;;;;;;13.90;99.90;;;;;;6247219;23;20387;-69
2022/03/30 04:59:50;;;;;;;;;;;13.90;99.90;;;;;;6247706;23;19950;-69
2022/03/30 05:02:16;;;;;;;;;;;13.90;99.90;;;;;;6247179;23;19904;-69
2022/03/30 05:04:41;;;;;;;;;;;13.80;99.90;;;;;;6248129;23;19915;-68
2022/03/30 05:07:07;;;;;;;;;;;13.90;99.90;;;;;;6220576;23;19914;-69
2022/03/30 05:09:33;;;;;;;;;;;14.00;99.90;;;;;;6247096;23;19904;-70
2022/03/30 05:11:59;;;;;;;;;;;14.00;99.90;;;;;;6247730;23;19927;-70
2022/03/30 05:14:25;;;;;;;;;;;14.00;99.90;;;;;;6246970;23;19908;-69
2022/03/30 05:16:51;;;;;;;;;;;14.00;99.90;;;;;;6247484;23;20220;-69
2022/03/30 05:19:16;;;;;;;;;;;13.90;99.90;;;;;;6248164;23;19939;-68
2022/03/30 05:21:42;;;;;;;;;;;13.90;99.90;;;;;;6247565;23;19942;-69
2022/03/30 05:24:08;;;;;;;;;;;13.80;99.90;;;;;;6248272;23;19910;-71
2022/03/30 05:26:34;;;;;;;;;;;13.70;99.90;;;;;;6247483;23;20305;-70
2022/03/30 05:29:00;;;;;;;;;;;13.60;99.90;;;;;;6247339;23;19998;-71
2022/03/30 05:31:25;;;;;;;;;;;13.60;99.90;;;;;;6246516;23;19903;-70
2022/03/30 05:33:51;;;;;;;;;;;13.50;99.90;;;;;;6247387;23;20202;-69
2022/03/30 05:36:18;;;;;;;;;;;13.50;99.90;;;;;;6246511;23;19989;-70
2022/03/30 05:38:44;;;;;;;;;;;13.50;99.90;;;;;;6246558;23;19918;-69
2022/03/30 05:41:11;;;;;;;;;;;13.50;99.90;;;;;;6246086;23;19903;-69
2022/03/30 05:43:37;;;;;;;;;;;13.50;99.90;;;;;;6246214;23;19969;-70
2022/03/30 05:46:02;;;;;;;;;;;13.50;99.90;;;;;;6246403;23;19978;-69
2022/03/30 05:48:28;;;;;;;;;;;13.50;99.90;;;;;;6245576;23;19904;-70
2022/03/30 05:50:55;;;;;;;;;;;13.50;99.90;;;;;;6245501;23;19974;-69
2022/03/30 05:53:21;;;;;;;;;;;13.50;99.90;;;;;;6245154;23;20303;-70
2022/03/30 05:55:47;;;;;;;;;;;13.50;99.90;;;;;;6245636;23;19975;-71
2022/03/30 05:58:14;;;;;;;;;;;13.60;99.90;;;;;;6244375;23;19923;-69
2022/03/30 06:00:40;;;;;;;;;;;13.60;99.90;;;;;;6244456;23;20241;-69
2022/03/30 06:03:07;;;;;;;;;;;13.70;99.90;;;;;;6244743;23;19954;-67
2022/03/30 06:05:32;;;;;;;;;;;13.80;99.90;;;;;;6217622;23;19907;-68
2022/03/30 06:07:59;;;;;;;;;;;13.90;99.90;;;;;;6245151;23;20017;-68
2022/03/30 06:10:29;;;;;;;;;;;14.00;99.90;;;;;;6245174;23;20297;-70
2022/03/30 06:12:55;;;;;;;;;;;14.00;99.90;;;;;;6244275;23;19904;-69
2022/03/30 06:15:21;;;;;;;;;;;14.00;99.90;;;;;;6218403;23;19903;-69
2022/03/30 06:17:48;;;;;;;;;;;14.10;99.90;;;;;;6245270;23;19922;-70
2022/03/30 06:20:13;;;;;;;;;;;14.10;99.90;;;;;;6245627;23;20210;-70
2022/03/30 06:22:41;;;;;;;;;;;14.20;99.90;;;;;;6246370;23;19911;-70
2022/03/30 06:25:07;;;;;;;;;;;14.10;99.90;;;;;;6245709;23;19950;-70
2022/03/30 06:27:34;;;;;;;;;;;14.10;99.90;;;;;;6245728;23;19903;-68
2022/03/30 06:30:00;;;;;;;;;;;14.10;99.90;;;;;;6246439;23;19908;-70
2022/03/30 06:32:26;;;;;;;;;;;14.20;99.90;;;;;;6246041;23;19904;-69
2022/03/30 06:34:52;;;;;;;;;;;14.30;99.90;;;;;;6245815;23;20178;-68
2022/03/30 06:37:18;;;;;;;;;;;14.30;99.90;;;;;;6245723;23;20332;-70
2022/03/30 06:39:44;;;;;;;;;;;14.30;99.90;;;;;;6245334;23;19923;-70
2022/03/30 06:42:12;;;;;;;;;;;14.30;99.90;;;;;;6245605;23;19904;-64
2022/03/30 06:44:38;;;;;;;;;;;14.30;99.90;;;;;;6246183;23;19910;-66
2022/03/30 06:47:04;;;;;;;;;;;14.30;99.90;;;;;;6245844;23;19911;-71
2022/03/30 06:49:30;;;;;;;;;;;14.40;99.90;;;;;;6246094;23;19904;-70
2022/03/30 06:51:56;;;;;;;;;;;14.50;99.90;;;;;;6246728;23;19904;-69
2022/03/30 06:54:22;;;;;;;;;;;14.50;99.90;;;;;;6245778;23;20007;-71
2022/03/30 06:56:49;;;;;;;;;;;14.50;99.90;;;;;;6246446;23;19911;-71
2022/03/30 06:59:15;;;;;;;;;;;14.50;99.90;;;;;;6245393;23;19918;-70
2022/03/30 07:01:40;;;;;;;;;;;14.50;99.90;;;;;;6245164;23;19930;-71
2022/03/30 07:04:06;;;;;;;;;;;14.60;99.90;;;;;;6246103;23;19903;-71
2022/03/30 07:06:32;;;;;;;;;;;14.50;99.90;;;;;;6245728;23;19988;-69
2022/03/30 07:11:42;;;;;;;;;;;14.60;99.90;;;;;;6245524;23;19915;-69
2022/03/30 07:14:08;;;;;;;;;;;14.60;99.90;;;;;;6245670;23;19911;-72
2022/03/30 07:16:35;;;;;;;;;;;14.60;99.90;;;;;;6245593;23;19904;-69
2022/03/30 07:19:01;;;;;;;;;;;14.60;99.90;;;;;;6245397;23;20368;-73
2022/03/30 07:21:27;;;;;;;;;;;14.70;99.90;;;;;;6245133;23;19942;-71
2022/03/30 07:23:52;;;;;;;;;;;14.60;99.90;;;;;;6218159;23;19953;-70
2022/03/30 07:26:19;;;;;;;;;;;14.60;99.90;;;;;;6245788;23;19910;-71
2022/03/30 07:28:45;;;;;;;;;;;14.60;99.90;;;;;;6245259;23;19921;-72
2022/03/30 07:31:11;;;;;;;;;;;14.60;99.90;;;;;;6245409;23;19927;-72
2022/03/30 07:33:37;;;;;;;;;;;14.60;99.90;;;;;;6246066;23;19904;-71
2022/03/30 07:36:03;;;;;;;;;;;14.60;99.90;;;;;;6245860;23;19914;-71
2022/03/30 07:38:29;;;;;;;;;;;14.60;99.90;;;;;;6246015;23;19995;-70
2022/03/30 07:40:56;;;;;;;;;;;14.50;99.90;;;;;;6245800;23;19903;-71
2022/03/30 07:43:22;;;;;;;;;;;14.50;99.90;;;;;;6245516;23;19939;-71
2022/03/30 07:45:48;;;;;;;;;;;14.60;99.90;;;;;;6244870;23;19949;-70
2022/03/30 07:48:13;;;;;;;;;;;14.60;99.90;;;;;;6245778;23;19982;-71
2022/03/30 07:50:40;;;;;;;;;;;14.50;99.90;;;;;;6245393;23;19991;-72
2022/03/30 07:53:08;;;;;;;;;;;14.50;99.90;;;;;;6244158;23;19911;-71
2022/03/30 07:55:35;;;;;;;;;;;14.50;99.90;;;;;;6244637;23;19904;-71
2022/03/30 07:58:00;;;;;;;;;;;14.50;99.90;;;;;;6244759;23;20405;-72
2022/03/30 08:00:27;;;;;;;;;;;14.50;99.90;;;;;;6244359;23;19947;-72
2022/03/30 08:02:53;;;;;;;;;;;14.50;99.90;;;;;;6244933;23;19908;-72
2022/03/30 08:05:19;;;;;;;;;;;14.40;99.90;;;;;;6244721;23;19911;-73
2022/03/30 08:07:49;;;;;;;;;;;14.30;99.90;;;;;;6245082;23;19949;-73
2022/03/30 08:10:15;;;;;;;;;;;14.40;99.90;;;;;;6244530;23;19942;-72
2022/03/30 08:12:41;;;;;;;;;;;14.40;99.90;;;;;;6244756;23;19978;-72
2022/03/30 08:15:08;;;;;;;;;;;14.50;99.90;;;;;;6245086;23;19904;-71
2022/03/30 08:17:34;;;;;;;;;;;14.50;99.90;;;;;;6244622;23;19916;-72
2022/03/30 08:20:01;;;;;;;;;;;14.60;99.90;;;;;;6244861;23;19934;-72
2022/03/30 08:22:30;;;;;;;;;;;14.60;99.90;;;;;;6218531;23;20196;-73
2022/03/30 08:24:59;;;;;;;;;;;14.70;99.90;;;;;;6246907;23;20384;-71
2022/03/30 08:27:26;;;;;;;;;;;14.70;99.90;;;;;;6220190;23;19904;-73
2022/03/30 08:29:53;;;;;;;;;;;14.70;99.90;;;;;;6247163;23;20008;-73
2022/03/30 08:32:19;;;;;;;;;;;14.70;99.90;;;;;;6247130;23;19911;-72
2022/03/30 08:34:45;;;;;;;;;;;14.70;99.90;;;;;;6246616;23;20209;-72
2022/03/30 08:37:12;;;;;;;;;;;14.80;99.90;;;;;;6247208;23;19911;-71
2022/03/30 08:39:38;;;;;;;;;;;14.80;99.90;;;;;;6246551;23;19981;-72
2022/03/30 08:42:05;;;;;;;;;;;14.80;99.90;;;;;;6247430;23;19904;-71
2022/03/30 08:44:32;;;;;;;;;;;14.80;99.90;;;;;;6246778;23;19903;-72
2022/03/30 08:46:58;;;;;;;;;;;14.80;99.90;;;;;;6246688;23;19910;-71
2022/03/30 08:49:24;;;;;;;;;;;14.90;99.90;;;;;;6246789;23;19938;-72
2022/03/30 08:51:50;;;;;;;;;;;15.00;99.90;;;;;;6246337;23;19904;-68
2022/03/30 08:54:17;;;;;;;;;;;15.10;99.90;;;;;;6246408;23;19904;-72
2022/03/30 08:56:43;;;;;;;;;;;15.20;99.90;;;;;;6246962;23;20197;-72
2022/03/30 08:59:10;;;;;;;;;;;15.30;99.90;;;;;;6245915;23;20014;-71
2022/03/30 09:01:39;;;;;;;;;;;15.40;99.90;;;;;;6246535;23;19904;-70
2022/03/30 09:04:08;;;;;;;;;;;15.50;99.90;;;;;;6245712;23;20320;-69
2022/03/30 09:06:37;;;;;;;;;;;15.50;99.90;;;;;;6245825;23;19931;-69
2022/03/30 09:09:03;;;;;;;;;;;15.60;99.90;;;;;;6246199;23;19982;-69
2022/03/30 09:11:36;;;;;;;;;;;15.70;99.90;;;;;;6246256;23;19903;-70
2022/03/30 09:14:05;;;;;;;;;;;15.80;99.90;;;;;;6246547;23;19907;-70
2022/03/30 09:16:42;;;;;;;;;;;15.90;99.90;;;;;;6246542;23;19904;-69
2022/03/30 09:19:12;;;;;;;;;;;16.00;99.90;;;;;;6246351;23;19920;-73
2022/03/30 09:21:57;;;;;;;;;;;16.10;99.90;;;;;;6219367;23;19907;-69
2022/03/30 09:24:25;;;;;;;;;;;16.10;99.90;;;;;;6246063;23;19908;-70
2022/03/30 09:26:51;;;;;;;;;;;16.20;99.90;;;;;;6246131;23;20210;-69
2022/03/30 09:29:22;;;;;;;;;;;16.30;99.90;;;;;;6246184;23;19903;-70
2022/03/30 09:31:51;;;;;;;;;;;16.40;99.90;;;;;;6246115;23;20002;-69
2022/03/30 09:34:20;;;;;;;;;;;16.50;99.90;;;;;;6245914;23;19949;-69
2022/03/30 09:36:49;;;;;;;;;;;16.60;99.90;;;;;;6245631;23;19904;-69
2022/03/30 09:39:48;;;;;;;;;;;16.70;99.90;;;;;;6246305;23;19931;-70
2022/03/30 09:42:14;;;;;;;;;;;16.80;99.90;;;;;;6070344;23;19906;-71
2022/03/30 09:44:55;;;;;;;;;;;17.00;99.90;;;;;;6094255;23;19932;-71
2022/03/30 09:47:21;;;;;;;;;;;17.20;99.90;;;;;;6094393;23;20104;-71
2022/03/30 09:49:48;;;;;;;;;;;17.60;99.90;;;;;;6094643;23;19988;-70
2022/03/30 09:52:16;;;;;;;;;;;18.20;99.90;;;;;;6093871;23;19906;-71
2022/03/30 09:54:43;;;;;;;;;;;18.40;99.90;;;;;;6094115;23;20185;-69
2022/03/30 09:57:14;;;;;;;;;;;18.50;99.90;;;;;;6094189;23;20275;-72
2022/03/30 09:59:58;;;;;;;;;;;18.70;99.90;;;;;;6094156;23;19914;-71
2022/03/30 10:02:25;;;;;;;;;;;18.70;99.90;;;;;;6069055;23;19912;-70
2022/03/30 10:04:51;;;;;;;;;;;18.60;99.90;;;;;;6093173;23;19937;-70
2022/03/30 10:07:17;;;;;;;;;;;18.80;99.90;;;;;;6094307;23;19912;-72
2022/03/30 10:09:44;;;;;;;;;;;18.90;99.90;;;;;;6093691;23;19992;-71
2022/03/30 10:12:12;;;;;;;;;;;19.10;99.90;;;;;;6094199;23;19989;-72
2022/03/30 10:14:39;;;;;;;;;;;19.20;99.90;;;;;;6093901;23;19957;-71
2022/03/30 10:17:05;;;;;;;;;;;19.50;99.90;;;;;;6125840;23;19961;-70
2022/03/30 10:19:31;;;;;;;;;;;19.50;99.90;;;;;;6245292;23;19960;-70
2022/03/30 10:21:56;;;;;;;;;;;19.20;99.90;;;;;;6245716;23;19915;-72
2022/03/30 10:24:22;;;;;;;;;;;19.00;99.90;;;;;;6244550;23;19908;-69
2022/03/30 10:26:48;;;;;;;;;;;19.10;99.90;;;;;;6245767;23;19934;-71
2022/03/30 10:29:16;;;;;;;;;;;19.10;99.90;;;;;;6245162;23;19904;-69
2022/03/30 10:31:42;;;;;;;;;;;19.00;99.90;;;;;;6245011;23;19910;-69
2022/03/30 10:34:27;;;;;;;;;;;18.90;99.90;;;;;;6245321;23;19931;-70
2022/03/30 10:37:02;;;;;;;;;;;18.90;99.90;;;;;;6245728;23;19966;-70
2022/03/30 10:39:28;;;;;;;;;;;18.70;99.90;;;;;;6245684;23;19912;-70
2022/03/30 10:42:04;;;;;;;;;;;18.60;99.90;;;;;;6244998;23;19911;-70
2022/03/30 10:44:36;;;;;;;;;;;18.60;99.90;;;;;;6244781;23;19950;-70
2022/03/30 10:47:10;;;;;;;;;;;18.70;99.90;;;;;;6217345;23;19981;-72
2022/03/30 10:49:37;;;;;;;;;;;18.60;99.90;;;;;;6244424;23;20206;-71
2022/03/30 10:52:22;;;;;;;;;;;18.60;99.90;;;;;;6218090;23;20230;-69
2022/03/30 10:54:50;;;;;;;;;;;18.60;99.90;;;;;;6244595;23;19978;-70
2022/03/30 10:57:34;;;;;;;;;;;18.40;99.90;;;;;;6244678;23;19914;-71
2022/03/30 11:00:17;;;;;;;;;;;18.20;99.90;;;;;;6244229;23;19915;-69
2022/03/30 11:02:42;;;;;;;;;;;17.90;99.90;;;;;;6243594;23;20093;-70
2022/03/30 11:05:13;;;;;;;;;;;17.60;99.90;;;;;;6243895;23;19969;-71
2022/03/30 11:07:39;;;;;;;;;;;17.40;99.90;;;;;;6244532;23;19910;-72
2022/03/30 11:10:18;;;;;;;;;;;17.20;99.90;;;;;;6244493;23;19904;-70
2022/03/30 11:13:00;;;;;;;;;;;17.10;99.90;;;;;;6244084;23;20338;-71
2022/03/30 11:15:26;;;;;;;;;;;17.00;99.90;;;;;;6243509;23;19903;-72
2022/03/30 11:17:53;;;;;;;;;;;16.90;99.90;;;;;;6243909;23;20043;-71
2022/03/30 11:20:19;;;;;;;;;;;16.90;99.90;;;;;;6245198;23;20005;-72
2022/03/30 11:22:46;;;;;;;;;;;16.80;99.90;;;;;;6245399;23;20030;-71
2022/03/30 11:25:19;;;;;;;;;;;16.80;99.90;;;;;;6244870;23;19926;-68
2022/03/30 11:28:05;;;;;;;;;;;16.70;99.90;;;;;;6245808;23;19958;-72
2022/03/30 11:30:32;;;;;;;;;;;16.60;99.90;;;;;;6245289;23;19922;-72
2022/03/30 11:32:59;;;;;;;;;;;16.80;99.90;;;;;;6244823;23;19903;-73
2022/03/30 11:35:28;;;;;;;;;;;16.70;99.90;;;;;;6245685;23;19990;-73
2022/03/30 11:38:07;;;;;;;;;;;16.80;99.90;;;;;;6244967;23;19908;-70
2022/03/30 11:40:34;;;;;;;;;;;16.90;99.90;;;;;;6245115;23;19922;-71
2022/03/30 11:43:00;;;;;;;;;;;17.00;99.90;;;;;;6244792;23;19939;-73
2022/03/30 11:45:27;;;;;;;;;;;17.10;99.90;;;;;;6244735;23;19903;-72
2022/03/30 11:47:57;;;;;;;;;;;17.20;99.90;;;;;;6244811;23;19923;-72
2022/03/30 11:50:28;;;;;;;;;;;17.30;99.90;;;;;;6244644;23;19903;-73
2022/03/30 11:53:14;;;;;;;;;;;17.20;99.90;;;;;;6244418;23;20293;-72
2022/03/30 11:55:54;;;;;;;;;;;17.20;99.90;;;;;;6245023;23;19907;-71
2022/03/30 11:58:23;;;;;;;;;;;17.20;99.90;;;;;;6246513;23;20272;-73
2022/03/30 12:00:49;;;;;;;;;;;17.40;99.90;;;;;;6219333;23;19904;-74
2022/03/30 12:03:14;;;;;;;;;;;17.40;99.90;;;;;;6246616;23;19904;-72
2022/03/30 12:05:41;;;;;;;;;;;17.80;99.90;;;;;;6247228;23;19910;-74
2022/03/30 12:08:06;;;;;;;;;;;17.90;99.90;;;;;;6247429;23;19913;-71
2022/03/30 12:10:32;;;;;;;;;;;18.10;99.90;;;;;;6220275;23;20518;-72
2022/03/30 12:13:02;;;;;;;;;;;18.10;99.90;;;;;;6248258;23;19903;-71
2022/03/30 12:15:28;;;;;;;;;;;18.10;99.90;;;;;;6247479;23;19903;-74
2022/03/30 12:17:55;;;;;;;;;;;18.20;99.90;;;;;;6247876;23;19926;-74
2022/03/30 12:20:25;;;;;;;;;;;18.20;99.90;;;;;;6247734;23;19939;-73
2022/03/30 12:22:58;;;;;;;;;;;17.90;99.90;;;;;;6248428;23;20237;-73
2022/03/30 12:25:28;;;;;;;;;;;17.70;99.90;;;;;;6247963;23;19913;-73
2022/03/30 12:27:54;;;;;;;;;;;17.60;99.90;;;;;;6247879;23;19911;-72
2022/03/30 12:30:20;;;;;;;;;;;17.50;99.90;;;;;;6247738;23;19904;-72
2022/03/30 12:32:47;;;;;;;;;;;17.50;99.90;;;;;;6247922;23;20240;-73
2022/03/30 12:35:15;;;;;;;;;;;17.50;99.90;;;;;;6248222;23;19904;-73
2022/03/30 12:37:45;;;;;;;;;;;17.60;99.90;;;;;;6247679;23;19910;-74
2022/03/30 12:40:15;;;;;;;;;;;17.60;99.90;;;;;;6247736;23;19923;-73
2022/03/30 12:42:43;;;;;;;;;;;17.70;99.90;;;;;;6220556;23;19943;-73
2022/03/30 12:45:14;;;;;;;;;;;17.70;99.90;;;;;;6248023;23;19907;-75
2022/03/30 12:47:40;;;;;;;;;;;17.70;99.90;;;;;;6247916;23;19965;-75
2022/03/30 12:50:08;;;;;;;;;;;17.80;99.90;;;;;;6247663;23;20364;-73
2022/03/30 12:52:42;;;;;;;;;;;17.70;99.90;;;;;;6247530;23;19903;-73
2022/03/30 12:55:24;;;;;;;;;;;17.50;99.90;;;;;;6247850;23;19911;-73
2022/03/30 12:57:51;;;;;;;;;;;17.30;99.90;;;;;;6247520;23;19904;-73
2022/03/30 13:00:18;;;;;;;;;;;17.20;99.90;;;;;;6247192;23;19973;-75
2022/03/30 13:02:43;;;;;;;;;;;17.20;99.90;;;;;;6248099;23;19908;-72
2022/03/30 13:05:20;;;;;;;;;;;17.20;99.90;;;;;;6247156;23;19904;-73
2022/03/30 13:07:52;;;;;;;;;;;17.20;99.90;;;;;;6247790;23;19934;-73
2022/03/30 13:10:20;;;;;;;;;;;17.20;99.90;;;;;;6247339;23;19959;-73
2022/03/30 13:12:49;;;;;;;;;;;17.10;99.90;;;;;;6220265;23;20237;-74
2022/03/30 13:15:16;;;;;;;;;;;17.10;99.90;;;;;;6246962;23;19904;-72
2022/03/30 13:17:56;;;;;;;;;;;17.10;99.90;;;;;;6247134;23;19915;-74
2022/03/30 13:20:22;;;;;;;;;;;17.00;99.90;;;;;;6248124;23;19958;-73
2022/03/30 13:22:55;;;;;;;;;;;17.00;99.90;;;;;;6247565;23;19903;-74
2022/03/30 13:25:40;;;;;;;;;;;17.00;99.90;;;;;;6248425;23;20243;-74
2022/03/30 13:28:06;;;;;;;;;;;17.00;99.90;;;;;;6220396;23;20244;-71
2022/03/30 13:30:33;;;;;;;;;;;17.20;99.90;;;;;;6247448;23;19903;-71
2022/03/30 13:32:59;;;;;;;;;;;17.30;99.90;;;;;;6247395;23;20324;-72
2022/03/30 13:35:25;;;;;;;;;;;17.30;99.90;;;;;;6248062;23;19958;-72
2022/03/30 13:37:52;;;;;;;;;;;17.50;99.90;;;;;;6247348;23;19904;-71
2022/03/30 13:40:18;;;;;;;;;;;17.40;99.90;;;;;;6247092;23;19994;-72
2022/03/30 13:42:45;;;;;;;;;;;17.50;99.90;;;;;;6247707;23;19907;-67
2022/03/30 13:45:14;;;;;;;;;;;17.60;99.90;;;;;;6247533;23;19903;-72
2022/03/30 13:47:43;;;;;;;;;;;17.60;99.90;;;;;;6246733;23;19903;-72
2022/03/30 13:50:13;;;;;;;;;;;17.70;99.90;;;;;;6218326;23;19967;-73
2022/03/30 13:52:39;;;;;;;;;;;17.80;99.90;;;;;;6245003;23;20309;-73
2022/03/30 13:55:06;;;;;;;;;;;17.70;99.90;;;;;;6217893;23;20007;-72
2022/03/30 13:57:32;;;;;;;;;;;17.80;99.90;;;;;;6245131;23;19904;-71
2022/03/30 13:59:58;;;;;;;;;;;17.90;99.90;;;;;;6246202;23;19911;-73
2022/03/30 14:02:24;;;;;;;;;;;18.00;99.90;;;;;;6246928;23;20205;-73
2022/03/30 14:04:49;;;;;;;;;;;18.00;99.90;;;;;;6246493;23;19926;-73
2022/03/30 14:07:15;;;;;;;;;;;17.90;99.90;;;;;;6246158;23;19916;-73
2022/03/30 14:09:42;;;;;;;;;;;18.00;99.90;;;;;;6246389;23;20240;-75
2022/03/30 14:12:08;;;;;;;;;;;17.90;99.90;;;;;;6219315;23;19903;-74
2022/03/30 14:14:34;;;;;;;;;;;17.80;99.90;;;;;;6246320;23;19904;-74
2022/03/30 14:17:02;;;;;;;;;;;17.70;99.90;;;;;;6246092;23;20201;-72
2022/03/30 14:19:30;;;;;;;;;;;17.70;99.90;;;;;;6245606;23;19942;-73
2022/03/30 14:21:56;;;;;;;;;;;17.70;99.90;;;;;;6245970;23;20317;-74
2022/03/30 14:24:24;;;;;;;;;;;17.60;99.90;;;;;;6246205;23;20339;-72
2022/03/30 14:26:50;;;;;;;;;;;17.60;99.90;;;;;;6245938;23;19903;-73
2022/03/30 14:29:16;;;;;;;;;;;17.70;99.90;;;;;;6246638;23;19904;-71